Ship Status Report: callsign CUBV2

sailwx.info

Track history (hours):
 
Tides and Currents Weather Stations Pressure Air Temp Water Temp Dewpoint Dewpoint Depression Visibility Wind Speed Wind Dir Waves Ship Positions

Callsign CUBV2 (name unknown)

Last reported at 2017-Nov-18 03:56 UTC. Time now 2017-Nov-19 21:58 UTC.
Position N 40°01' W 009°19'.

AWS

Date/timePositionNaut miles runAvg speedWind from/ knotsBaromVisibWave heightAir tempDewpointWater temp
2017-Nov-18 03:56N 40°01' W 009°19'2 4.6
2017-Nov-18 03:28N 39°59' W 009°17'4 7.1
2017-Nov-18 02:56N 40°02' W 009°14'2 0.0
2017-Nov-16 08:25N 40°04' W 009°13'1 1.3
2017-Nov-16 08:00N 40°04' W 009°12'1 1.1
2017-Nov-16 07:29N 40°05' W 009°12'0 0.2
2017-Nov-16 06:34N 40°05' W 009°12'0 0.5
2017-Nov-16 06:29N 40°05' W 009°12'0 0.5
2017-Nov-16 05:59N 40°05' W 009°12'  
Track history (hours):
 
Tides and Currents Weather Stations Pressure Air Temp Water Temp Dewpoint Dewpoint Depression Visibility Wind Speed Wind Dir Waves Ship Positions

Callsign CUBV2 (name unknown)

Last reported at 2017-Nov-18 03:56 UTC. Time now 2017-Nov-19 21:58 UTC.
Position N 40°01' W 009°19'.

AWS

Date/timePositionNaut miles runAvg speedWind from/ knotsBaromVisibWave heightAir tempDewpointWater temp
2017-Nov-18 03:56N 40°01' W 009°19'2 4.6
2017-Nov-18 03:28N 39°59' W 009°17'4 7.1
2017-Nov-18 02:56N 40°02' W 009°14'2 0.0
2017-Nov-16 08:25N 40°04' W 009°13'1 1.3
2017-Nov-16 08:00N 40°04' W 009°12'1 1.1
2017-Nov-16 07:29N 40°05' W 009°12'0 0.2
2017-Nov-16 06:34N 40°05' W 009°12'0 0.5
2017-Nov-16 06:29N 40°05' W 009°12'0 0.5
2017-Nov-16 05:59N 40°05' W 009°12'  

Dump ship's entire track history